Time;durP1;ratioP1;P1;durP2;ratioP2;P2;SDS_P1;SDS_P2;PMS_P1;PMS_P2;Temp;Humidity;BMP_temperature;BMP_pressure;BME280_temperature;BME280_humidity;BME280_pressure;Samples;Min_cycle;Max_cycle;Signal;HPM_P1;HPM_P2
2023/01/08 00:01:09;;;;;;;5.80;2.53;;;;;;;11.23;74.14;100087.50;3563478;40;20044;-63
2023/01/08 00:03:37;;;;;;;4.63;2.45;;;;;;;10.55;73.58;99979.66;3571295;40;20053;-62
2023/01/08 00:06:07;;;;;;;3.30;2.50;;;;;;;11.20;73.68;100093.97;3570958;40;20673;-63
2023/01/08 00:08:33;;;;;;;6.18;3.20;;;;;;;11.22;73.74;100107.28;3570405;40;20065;-63
2023/01/08 00:11:00;;;;;;;6.63;2.70;;;;;;;11.22;73.73;100108.13;3570432;40;20060;-61
2023/01/08 00:13:27;;;;;;;6.65;3.17;;;;;;;10.93;73.94;100070.00;3568708;40;20085;-62
2023/01/08 00:15:53;;;;;;;4.75;2.50;;;;;;;11.20;74.27;100102.03;3569815;40;20126;-63
2023/01/08 00:18:19;;;;;;;5.25;2.63;;;;;;;10.77;73.82;100031.81;3570820;40;20060;-62
2023/01/08 00:20:46;;;;;;;4.18;2.50;;;;;;;11.26;73.44;100106.06;3570719;40;20170;-61
2023/01/08 00:23:18;;;;;;;5.38;2.85;;;;;;;11.24;73.87;100097.28;3568673;40;20290;-63
2023/01/08 00:25:45;;;;;;;4.45;2.72;;;;;;;11.26;73.76;100098.88;3567579;40;20604;-63
2023/01/08 00:28:11;;;;;;;5.38;2.70;;;;;;;10.65;73.85;99985.19;3569325;40;20060;-63
2023/01/08 00:30:37;;;;;;;4.68;3.08;;;;;;;10.63;73.50;99974.56;3570113;40;20061;-63
2023/01/08 00:33:03;;;;;;;6.25;3.00;;;;;;;11.24;73.82;100067.69;3569771;40;20044;-63
2023/01/08 00:35:29;;;;;;;4.25;2.63;;;;;;;10.72;73.56;99975.72;3569566;40;20055;-63
2023/01/08 00:37:54;;;;;;;7.00;2.60;;;;;;;11.37;74.02;100076.50;3570862;40;20060;-63
2023/01/08 00:40:20;;;;;;;6.93;2.70;;;;;;;11.38;73.73;100072.84;3568516;40;20191;-63
2023/01/08 00:42:46;;;;;;;5.03;2.45;;;;;;;11.37;73.69;100058.53;3570392;40;20059;-63
2023/01/08 00:45:11;;;;;;;5.10;2.90;;;;;;;11.41;73.70;100063.66;3568653;40;20061;-63
2023/01/08 00:47:37;;;;;;;6.45;2.90;;;;;;;11.38;73.83;100060.25;3569633;40;20068;-63
2023/01/08 00:50:03;;;;;;;6.18;2.55;;;;;;;11.32;73.71;100047.28;3569329;40;20063;-63
2023/01/08 00:52:29;;;;;;;6.50;2.83;;;;;;;11.33;74.21;100051.69;3570176;40;20049;-63
2023/01/08 00:54:54;;;;;;;5.90;2.78;;;;;;;10.85;74.16;99970.25;3568672;40;20508;-63
2023/01/08 00:57:20;;;;;;;6.03;2.92;;;;;;;11.36;73.72;100050.59;3567843;40;21306;-63
2023/01/08 00:59:46;;;;;;;5.80;3.03;;;;;;;11.36;74.35;100051.44;3569069;40;20399;-62
2023/01/08 01:02:12;;;;;;;5.50;2.92;;;;;;;11.35;74.50;100049.75;3569385;40;20323;-63
2023/01/08 01:04:37;;;;;;;5.90;2.97;;;;;;;11.27;74.14;100032.47;3570973;40;21421;-63
2023/01/08 01:07:03;;;;;;;10.02;6.53;;;;;;;10.98;74.14;99983.63;3568796;40;20079;-63
2023/01/08 01:09:29;;;;;;;4.50;2.92;;;;;;;11.34;73.88;100048.00;3568784;40;20159;-63
2023/01/08 01:11:55;;;;;;;4.57;3.00;;;;;;;11.34;74.18;100034.53;3570587;40;20069;-63
2023/01/08 01:14:21;;;;;;;5.80;3.25;;;;;;;11.37;73.94;100028.06;3567811;40;20076;-63
2023/01/08 01:16:47;;;;;;;5.40;2.83;;;;;;;11.34;73.88;100037.25;3568673;40;20136;-63
2023/01/08 01:19:14;;;;;;;4.22;2.67;;;;;;;10.68;73.97;99917.78;3566347;40;20158;-63
2023/01/08 01:21:40;;;;;;;4.35;2.80;;;;;;;11.37;74.11;100036.16;3569136;40;20044;-63
2023/01/08 01:24:08;;;;;;;4.38;2.78;;;;;;;11.37;74.11;100042.38;3568853;40;20052;-62
2023/01/08 01:26:34;;;;;;;7.72;3.00;;;;;;;11.25;74.17;100016.44;3568878;40;20049;-62
2023/01/08 01:29:00;;;;;;;2.97;2.72;;;;;;;10.88;74.26;99941.31;3568569;40;20296;-62
2023/01/08 01:31:30;;;;;;;3.53;2.60;;;;;;;11.36;74.23;100029.91;3570271;40;20064;-64
2023/01/08 01:33:55;;;;;;;4.50;2.40;;;;;;;10.84;74.36;99938.94;3569383;40;20063;-64
2023/01/08 01:36:24;;;;;;;5.30;2.75;;;;;;;11.35;74.05;100022.84;3568739;40;20056;-64
2023/01/08 01:38:53;;;;;;;6.93;3.00;;;;;;;11.36;74.38;100035.28;3568805;40;20092;-64
2023/01/08 01:41:35;;;;;;;5.72;2.65;;;;;;;11.32;74.47;100027.56;3568322;40;20166;-63
2023/01/08 01:44:32;;;;;;;5.43;2.75;;;;;;;11.33;74.64;100042.75;3568427;40;20292;-62
2023/01/08 01:47:01;;;;;;;4.95;2.40;;;;;;;10.62;74.58;99921.78;3569864;40;20049;-63
2023/01/08 01:49:29;;;;;;;5.45;2.80;;;;;;;11.30;75.69;100051.91;3568891;40;20469;-63
2023/01/08 01:52:04;;;;;;;4.07;1.98;;;;;;;11.13;74.90;100052.34;3570694;40;20060;-62
2023/01/08 01:54:31;;;;;;;4.28;2.15;;;;;;;10.38;75.14;99951.38;3570408;40;20062;-63
2023/01/08 01:56:59;;;;;;;3.97;2.08;;;;;;;10.98;75.95;100061.59;3570491;40;20458;-61
2023/01/08 01:59:25;;;;;;;5.15;2.00;;;;;;;10.82;76.40;100070.81;3566735;40;20061;-62
2023/01/08 02:01:51;;;;;;;4.85;1.90;;;;;;;10.69;77.25;100057.44;3563456;40;20057;-64
2023/01/08 02:04:17;;;;;;;4.95;2.03;;;;;;;10.08;78.03;99988.53;3571323;40;20065;-62
2023/01/08 02:07:35;;;;;;;6.00;1.80;;;;;;;10.41;78.03;100069.38;3563466;40;20129;-64
2023/01/08 02:10:13;;;;;;;4.45;1.40;;;;;;;10.21;77.04;100046.63;3569916;40;20049;-66
2023/01/08 02:13:08;;;;;;;5.45;1.40;;;;;;;10.07;77.30;100041.38;3570626;40;20096;-65
2023/01/08 02:16:17;;;;;;;3.15;1.20;;;;;;;9.99;77.83;100041.09;3569472;40;20053;-62
2023/01/08 02:18:57;;;;;;;3.90;1.23;;;;;;;9.92;78.63;100032.59;3567978;40;20049;-61
2023/01/08 02:21:58;;;;;;;2.92;1.25;;;;;;;9.86;77.95;100026.81;3568797;40;20379;-64
2023/01/08 02:24:44;;;;;;;3.13;0.80;;;;;;;9.81;78.38;100026.31;3568425;40;20049;-64
2023/01/08 02:27:15;;;;;;;4.45;1.10;;;;;;;9.76;78.41;100015.88;3568655;40;20056;-65
2023/01/08 02:29:41;;;;;;;5.05;1.00;;;;;;;9.74;78.96;100023.19;3569769;40;20049;-65
2023/01/08 02:32:07;;;;;;;2.63;1.23;;;;;;;9.70;78.35;100029.72;3569091;40;20088;-65
2023/01/08 02:34:32;;;;;;;3.25;1.10;;;;;;;9.69;79.25;100028.03;3560203;40;20350;-64
2023/01/08 02:37:00;;;;;;;2.67;1.13;;;;;;;9.67;79.26;100019.22;3569056;40;20059;-65
2023/01/08 02:39:25;;;;;;;5.47;1.23;;;;;;;9.67;79.91;100013.84;3569879;40;20118;-65
2023/01/08 02:42:22;;;;;;;3.90;1.00;;;;;;;9.62;79.70;100032.13;3562272;40;20065;-66
2023/01/08 02:45:16;;;;;;;1.90;0.60;;;;;;;9.58;79.63;100020.75;3570529;40;20064;-65
2023/01/08 02:47:54;;;;;;;4.68;1.13;;;;;;;8.87;79.75;99917.53;3572497;40;20040;-65
2023/01/08 02:50:41;;;;;;;4.50;1.10;;;;;;;9.50;80.22;100026.63;3568050;40;20071;-65
2023/01/08 02:53:14;;;;;;;2.60;0.90;;;;;;;9.45;81.11;100019.88;3567272;40;20048;-64
2023/01/08 02:55:50;;;;;;;1.95;0.77;;;;;;;9.36;80.82;100017.84;3569051;40;20083;-65
2023/01/08 02:58:19;;;;;;;3.75;1.23;;;;;;;9.35;81.16;100014.28;3568071;40;20069;-64
2023/01/08 03:00:47;;;;;;;4.80;1.02;;;;;;;9.27;82.22;100005.94;3569243;40;20071;-65
2023/01/08 03:03:26;;;;;;;3.25;0.93;;;;;;;9.20;82.26;99988.56;3568164;40;20375;-65
2023/01/08 03:06:07;;;;;;;3.13;0.88;;;;;;;9.29;82.66;100004.00;3568415;40;20060;-64
2023/01/08 03:08:42;;;;;;;2.38;0.82;;;;;;;9.18;82.97;99985.13;3567459;40;20319;-64
2023/01/08 03:11:16;;;;;;;2.35;1.00;;;;;;;9.24;81.98;100001.66;3566025;40;20061;-62
2023/01/08 03:13:55;;;;;;;4.45;0.82;;;;;;;9.28;82.92;100005.81;3569967;40;20049;-65
2023/01/08 03:16:38;;;;;;;4.40;1.23;;;;;;;9.27;81.74;100001.44;3566828;40;20072;-65
2023/01/08 03:19:16;;;;;;;3.08;0.57;;;;;;;9.29;82.08;100004.00;3569587;40;20075;-65
2023/01/08 03:21:45;;;;;;;4.03;0.88;;;;;;;9.27;81.90;99997.91;3567990;40;20048;-65
2023/01/08 03:24:24;;;;;;;17.73;8.93;;;;;;;8.65;81.70;99883.34;3567996;40;20301;-65
2023/01/08 03:26:57;;;;;;;2.47;1.05;;;;;;;9.27;81.58;99984.47;3569780;40;20299;-64
2023/01/08 03:29:26;;;;;;;4.60;0.98;;;;;;;9.30;81.49;100000.38;3568922;40;20131;-64
2023/01/08 03:32:01;;;;;;;4.88;1.10;;;;;;;9.30;81.07;99987.81;3567700;40;20049;-65
2023/01/08 03:34:33;;;;;;;2.63;0.90;;;;;;;9.33;81.96;99992.09;3566112;40;20057;-64
2023/01/08 03:37:07;;;;;;;4.72;1.05;;;;;;;9.35;81.93;99987.47;3571232;40;20079;-65
2023/01/08 03:39:37;;;;;;;5.70;1.15;;;;;;;9.35;81.52;99979.41;3568676;40;20347;-64
2023/01/08 03:42:10;;;;;;;4.93;1.15;;;;;;;9.38;81.37;99994.44;3567982;40;20083;-65
2023/01/08 03:44:36;;;;;;;;;;;;;;;9.35;82.05;99987.47;3562899;40;20053;-65
2023/01/08 03:47:05;;;;;;;7.40;1.23;;;;;;;9.36;81.99;99986.53;3568596;40;19932;-64
2023/01/08 03:49:32;;;;;;;8.13;1.50;;;;;;;8.87;81.45;99911.34;3568402;40;20059;-64
2023/01/08 03:51:58;;;;;;;5.78;1.05;;;;;;;9.39;81.50;99989.00;3569356;40;20053;-64
2023/01/08 03:54:30;;;;;;;4.13;0.90;;;;;;;9.40;81.40;99976.44;3562575;40;20380;-64
2023/01/08 03:56:56;;;;;;;4.85;1.23;;;;;;;9.40;81.35;99969.25;3570140;40;20155;-64
2023/01/08 03:59:22;;;;;;;3.60;0.90;;;;;;;9.47;80.89;99975.03;3568621;40;20463;-64
2023/01/08 04:01:48;;;;;;;2.85;1.02;;;;;;;9.49;80.92;99982.00;3566997;40;20066;-64
2023/01/08 04:04:13;;;;;;;5.43;1.05;;;;;;;9.48;80.46;99972.25;3568845;40;20199;-64
2023/01/08 04:06:39;;;;;;;4.57;0.93;;;;;;;9.49;80.62;99982.00;3569128;40;20123;-64
2023/01/08 04:09:05;;;;;;;1.20;0.80;;;;;;;9.47;80.78;99973.19;3568945;40;20093;-64
2023/01/08 04:11:31;;;;;;;3.95;1.05;;;;;;;9.41;81.03;99962.03;3566637;40;20060;-64
2023/01/08 04:13:57;;;;;;;5.57;1.08;;;;;;;9.45;81.48;99959.06;3568329;40;20048;-64
2023/01/08 04:16:23;;;;;;;4.78;1.30;;;;;;;9.42;81.26;99953.91;3568186;40;20059;-64
2023/01/08 04:18:48;;;;;;;3.15;1.42;;;;;;;9.37;80.77;99942.63;3567195;40;20068;-64
2023/01/08 04:21:14;;;;;;;6.43;1.55;;;;;;;9.40;81.61;99953.16;3567992;40;20059;-64
2023/01/08 04:23:40;;;;;;;4.05;1.50;;;;;;;9.38;81.25;99952.38;3568281;40;20092;-64
2023/01/08 04:26:07;;;;;;;4.93;1.75;;;;;;;8.68;81.60;99826.00;3568739;40;20415;-64
2023/01/08 04:28:33;;;;;;;4.45;1.50;;;;;;;9.43;81.59;99962.81;3566691;40;20372;-64
2023/01/08 04:30:59;;;;;;;5.75;2.00;;;;;;;8.79;81.50;99839.53;3567339;40;20464;-64
2023/01/08 04:33:24;;;;;;;4.72;1.63;;;;;;;8.78;81.72;99825.25;3565930;40;20053;-64
2023/01/08 04:35:51;;;;;;;5.22;1.90;;;;;;;8.95;81.52;99855.38;3567780;40;20057;-65
2023/01/08 04:38:17;;;;;;;4.95;1.60;;;;;;;9.51;80.97;99937.16;3566100;40;20061;-64
2023/01/08 04:40:42;;;;;;;4.95;1.95;;;;;;;9.50;80.79;99943.47;3569205;40;20053;-65
2023/01/08 04:43:08;;;;;;;3.10;1.40;;;;;;;9.51;80.88;99950.56;3567987;40;20063;-64
2023/01/08 04:45:34;;;;;;;4.07;1.90;;;;;;;9.52;80.15;99938.00;3567478;40;20053;-64
2023/01/08 04:48:00;;;;;;;2.70;1.50;;;;;;;9.57;80.22;99932.31;3567650;40;20052;-64
2023/01/08 04:50:26;;;;;;;3.42;1.52;;;;;;;9.55;79.97;99945.84;3567370;40;20053;-64
2023/01/08 04:52:52;;;;;;;4.95;1.98;;;;;;;9.45;80.41;99934.91;3568936;40;20107;-64
2023/01/08 04:55:18;;;;;;;4.05;1.98;;;;;;;8.89;79.94;99845.09;3560800;40;20076;-64
2023/01/08 04:57:44;;;;;;;4.22;1.60;;;;;;;9.50;80.57;99948.84;3566939;40;20068;-64
2023/01/08 05:00:10;;;;;;;2.58;1.50;;;;;;;9.51;80.21;99947.88;3568731;40;20065;-64
2023/01/08 05:02:36;;;;;;;4.43;1.60;;;;;;;9.05;79.51;99876.06;3567533;40;20053;-64
2023/01/08 05:05:02;;;;;;;2.33;1.08;;;;;;;9.54;79.15;99952.16;3563442;40;20053;-64
2023/01/08 05:07:28;;;;;;;1.83;1.00;;;;;;;9.52;79.05;99954.97;3567164;40;20041;-64
2023/01/08 05:09:53;;;;;;;4.78;1.30;;;;;;;9.52;78.21;99956.78;3567065;40;20129;-64
2023/01/08 05:12:19;;;;;;;5.22;1.92;;;;;;;9.46;77.42;99941.13;3567650;40;20061;-64
2023/01/08 05:14:45;;;;;;;2.75;1.00;;;;;;;9.47;77.28;99954.41;3568479;40;20049;-64
2023/01/08 05:17:10;;;;;;;2.92;1.00;;;;;;;9.51;76.75;99960.41;3568102;40;20387;-66
2023/01/08 05:19:36;;;;;;;2.35;1.08;;;;;;;9.52;76.34;99954.97;3568137;40;20052;-64
2023/01/08 05:22:02;;;;;;;3.15;1.33;;;;;;;9.53;76.16;99959.34;3567171;40;20060;-64
2023/01/08 05:24:27;;;;;;;3.75;1.00;;;;;;;9.51;75.46;99947.88;3570585;40;20287;-64
2023/01/08 05:26:53;;;;;;;1.58;0.93;;;;;;;9.54;75.98;99944.09;3568345;40;20052;-64
2023/01/08 05:29:19;;;;;;;2.10;1.20;;;;;;;8.87;75.33;99829.09;3567014;40;20097;-64
2023/01/08 05:31:45;;;;;;;3.85;1.00;;;;;;;9.52;75.22;99946.91;3562075;40;20130;-64
2023/01/08 05:34:10;;;;;;;4.10;1.27;;;;;;;9.52;74.26;99920.09;3568945;40;20052;-65
2023/01/08 05:36:36;;;;;;;3.28;1.33;;;;;;;9.56;74.50;99926.09;3569708;40;20048;-64
2023/01/08 05:39:03;;;;;;;2.20;1.27;;;;;;;8.94;74.65;99833.06;3567387;40;20621;-64
2023/01/08 05:41:28;;;;;;;2.78;1.10;;;;;;;9.50;75.27;99922.00;3566730;40;20053;-65
2023/01/08 05:43:54;;;;;;;3.83;1.48;;;;;;;9.48;74.34;99932.00;3568964;40;20055;-64
2023/01/08 05:46:20;;;;;;;2.65;1.00;;;;;;;9.42;74.21;99927.09;3566524;40;20315;-64
2023/01/08 05:48:48;;;;;;;1.88;1.08;;;;;;;9.42;74.02;99929.75;3567450;40;20049;-64
2023/01/08 05:51:13;;;;;;;6.30;1.27;;;;;;;9.34;74.73;99920.53;3563738;40;20072;-64
2023/01/08 05:53:39;;;;;;;5.93;1.35;;;;;;;9.32;74.17;99922.47;3566829;40;20052;-64
2023/01/08 05:56:10;;;;;;;3.55;1.45;;;;;;;9.27;73.90;99925.50;3569554;40;20055;-65
2023/01/08 05:58:36;;;;;;;6.85;1.30;;;;;;;9.21;74.51;99931.28;3566231;40;20114;-65
2023/01/08 06:01:08;;;;;;;4.53;1.15;;;;;;;8.63;74.54;99844.22;3567100;40;20056;-64
2023/01/08 06:03:33;;;;;;;3.92;1.48;;;;;;;9.07;74.96;99935.78;3567436;40;20064;-64
2023/01/08 06:06:02;;;;;;;3.65;1.30;;;;;;;9.03;74.95;99947.69;3569087;40;20052;-65
2023/01/08 06:08:29;;;;;;;3.65;1.20;;;;;;;8.52;74.62;99875.28;3570106;40;20068;-65
2023/01/08 06:11:01;;;;;;;3.75;1.52;;;;;;;8.88;75.42;99943.41;3570418;40;20122;-64
2023/01/08 06:13:28;;;;;;;3.05;1.20;;;;;;;8.90;74.84;99952.19;3569389;40;20048;-65
2023/01/08 06:15:56;;;;;;;2.45;1.20;;;;;;;8.21;75.20;99857.75;3566332;40;20126;-65
2023/01/08 06:18:22;;;;;;;2.80;0.70;;;;;;;8.80;75.48;99960.00;3567157;40;20177;-65
2023/01/08 06:20:47;;;;;;;5.00;1.60;;;;;;;8.79;74.78;99954.75;3568550;40;20056;-62
2023/01/08 06:23:13;;;;;;;3.65;1.08;;;;;;;8.76;75.90;99958.50;3566213;40;20069;-63
2023/01/08 06:25:38;;;;;;;7.28;1.30;;;;;;;8.19;75.62;99864.19;3567689;40;20063;-63
2023/01/08 06:28:04;;;;;;;4.07;1.08;;;;;;;7.90;75.46;99835.72;3566502;40;20053;-63
2023/01/08 06:30:30;;;;;;;3.72;1.48;;;;;;;8.62;75.65;99963.06;3565659;40;20304;-63
2023/01/08 06:32:58;;;;;;;4.80;1.58;;;;;;;7.90;75.16;99843.75;3568088;40;20056;-63
2023/01/08 06:35:25;;;;;;;4.97;1.33;;;;;;;8.59;75.07;99967.69;3566841;40;20052;-64
2023/01/08 06:37:51;;;;;;;4.28;1.23;;;;;;;8.49;75.26;99969.25;3566739;40;20060;-63
2023/01/08 06:40:17;;;;;;;4.03;1.30;;;;;;;8.41;75.10;99955.53;3567036;40;20074;-64
2023/01/08 06:42:43;;;;;;;7.20;1.13;;;;;;;8.47;74.34;99979.22;3570211;40;20439;-63
2023/01/08 06:45:10;;;;;;;5.78;1.23;;;;;;;8.46;75.06;99971.28;3569151;40;20059;-63
2023/01/08 06:47:35;;;;;;;9.57;1.65;;;;;;;8.43;74.02;99983.03;3567236;40;20061;-62
2023/01/08 06:50:01;;;;;;;6.53;1.60;;;;;;;8.42;73.96;99975.97;3567650;40;20403;-63
2023/01/08 06:52:27;;;;;;;3.70;1.65;;;;;;;8.40;73.66;99977.88;3569571;40;20295;-63
2023/01/08 06:54:52;;;;;;;6.30;1.48;;;;;;;8.38;74.28;99974.47;3567783;40;20056;-62
2023/01/08 06:57:18;;;;;;;7.25;2.13;;;;;;;8.37;74.21;99983.41;3568314;40;20048;-63
2023/01/08 06:59:44;;;;;;;5.55;1.70;;;;;;;7.73;73.62;99876.09;3572206;40;20057;-63
2023/01/08 07:02:13;;;;;;;7.07;2.00;;;;;;;8.24;73.42;99967.31;3568529;40;20056;-64
2023/01/08 07:04:39;;;;;;;9.60;2.63;;;;;;;8.27;73.58;99971.59;3571201;40;20121;-63
2023/01/08 07:07:05;;;;;;;8.52;2.10;;;;;;;8.30;73.22;99982.09;3568704;40;20060;-64
2023/01/08 07:09:33;;;;;;;8.80;1.90;;;;;;;8.30;73.57;99980.28;3565664;40;20065;-64
2023/01/08 07:11:59;;;;;;;5.88;1.75;;;;;;;8.30;73.74;99980.28;3568866;40;20414;-63
2023/01/08 07:14:25;;;;;;;9.10;1.90;;;;;;;8.30;73.75;99972.25;3557237;40;20051;-63
2023/01/08 07:16:50;;;;;;;8.23;2.28;;;;;;;8.28;73.01;99973.34;3570298;40;20065;-64
2023/01/08 07:19:16;;;;;;;7.60;2.20;;;;;;;7.63;73.10;99858.94;3564782;40;20061;-63
2023/01/08 07:21:41;;;;;;;7.45;2.00;;;;;;;8.27;73.12;99961.75;3567499;40;20084;-64
2023/01/08 07:24:07;;;;;;;5.20;1.45;;;;;;;8.29;73.69;99969.69;3566765;40;20080;-63
2023/01/08 07:26:34;;;;;;;7.10;1.98;;;;;;;7.86;73.11;99894.88;3566956;40;20104;-64
2023/01/08 07:29:00;;;;;;;7.93;1.70;;;;;;;8.27;73.00;99976.97;3567276;40;20437;-64
2023/01/08 07:31:25;;;;;;;8.32;2.00;;;;;;;8.28;72.70;99968.84;3566526;40;20060;-63
2023/01/08 07:33:51;;;;;;;8.73;1.83;;;;;;;8.26;72.54;99975.25;3568701;40;20053;-64
2023/01/08 07:36:21;;;;;;;8.60;1.92;;;;;;;8.26;72.94;99975.25;3561993;40;20065;-65
2023/01/08 07:38:48;;;;;;;9.85;1.77;;;;;;;8.21;73.61;99967.50;3565427;40;20056;-64
2023/01/08 07:41:15;;;;;;;9.45;1.65;;;;;;;7.68;73.55;99896.97;3565053;40;20135;-64
2023/01/08 07:43:41;;;;;;;9.77;1.73;;;;;;;8.14;74.10;99972.41;3568545;40;20051;-64
2023/01/08 07:46:07;;;;;;;6.05;1.55;;;;;;;8.09;74.21;99973.69;3564837;40;20370;-65
2023/01/08 07:48:32;;;;;;;9.27;1.85;;;;;;;8.02;74.34;99962.50;3563965;40;20053;-64
2023/01/08 07:51:06;;;;;;;8.60;1.90;;;;;;;8.07;73.80;99962.22;3566574;40;20119;-64
2023/01/08 07:53:33;;;;;;;4.05;1.33;;;;;;;8.02;74.25;99964.31;3565021;40;20046;-64
2023/01/08 07:56:01;;;;;;;5.55;1.73;;;;;;;8.00;74.21;99963.56;3554905;40;20057;-64
2023/01/08 07:58:27;;;;;;;5.53;1.60;;;;;;;7.95;74.78;99952.28;3565453;40;20056;-64
2023/01/08 08:00:53;;;;;;;8.27;1.63;;;;;;;7.92;74.34;99948.00;3565755;40;20053;-63
2023/01/08 08:03:19;;;;;;;9.05;1.85;;;;;;;7.96;74.71;99962.03;3556758;40;20053;-64
2023/01/08 08:05:44;;;;;;;5.25;1.65;;;;;;;7.49;75.19;99870.53;3570785;40;20045;-64
2023/01/08 08:08:12;;;;;;;5.80;1.55;;;;;;;7.33;75.15;99843.09;3569071;40;20317;-64
2023/01/08 08:10:40;;;;;;;4.50;1.40;;;;;;;8.03;75.78;99944.63;3564090;40;20565;-64
2023/01/08 08:13:06;;;;;;;9.27;2.90;;;;;;;8.04;75.18;99944.53;3566497;40;20052;-64
2023/01/08 08:15:33;;;;;;;7.70;2.10;;;;;;;8.07;75.60;99941.66;3564409;40;20352;-64
2023/01/08 08:17:59;;;;;;;8.50;2.50;;;;;;;7.57;75.44;99843.28;3564044;40;20064;-64
2023/01/08 08:20:26;;;;;;;5.32;1.77;;;;;;;8.19;75.36;99928.44;3563864;40;20096;-65
2023/01/08 08:22:52;;;;;;;7.03;1.92;;;;;;;8.26;75.52;99927.06;3564270;40;20053;-62
2023/01/08 08:25:18;;;;;;;9.73;1.95;;;;;;;8.32;75.30;99921.28;3566207;40;20063;-64
2023/01/08 08:27:44;;;;;;;10.32;2.10;;;;;;;8.40;75.10;99920.78;3568160;40;20301;-64
2023/01/08 08:30:11;;;;;;;5.95;1.52;;;;;;;7.94;75.07;99836.38;3564381;40;20130;-64
2023/01/08 08:32:37;;;;;;;8.77;1.52;;;;;;;8.47;75.65;99931.00;3567371;40;20384;-63
2023/01/08 08:35:04;;;;;;;3.53;1.10;;;;;;;8.53;74.72;99935.94;3566539;40;20083;-65
2023/01/08 08:37:30;;;;;;;7.53;1.77;;;;;;;8.54;74.88;99926.94;3566013;40;20064;-64
2023/01/08 08:39:55;;;;;;;6.65;1.88;;;;;;;8.55;74.59;99928.66;3563901;40;20057;-63
2023/01/08 08:42:21;;;;;;;9.30;1.63;;;;;;;8.41;75.19;99914.50;3570142;40;20061;-66
2023/01/08 08:44:46;;;;;;;6.47;1.38;;;;;;;8.54;74.88;99929.63;3566721;40;20049;-66
2023/01/08 08:47:12;;;;;;;6.60;1.52;;;;;;;8.32;74.81;99889.16;3564215;40;20075;-66
2023/01/08 08:49:38;;;;;;;6.50;1.48;;;;;;;8.61;75.35;99927.38;3563816;40;20392;-66
2023/01/08 08:52:04;;;;;;;6.50;1.92;;;;;;;8.59;74.85;99919.47;3560052;40;20107;-66
2023/01/08 08:54:30;;;;;;;7.55;2.17;;;;;;;8.61;75.20;99922.03;3563916;40;20093;-66
2023/01/08 08:56:56;;;;;;;6.35;1.67;;;;;;;7.91;74.91;99805.31;3563405;40;20391;-66
2023/01/08 08:59:21;;;;;;;5.45;1.65;;;;;;;8.60;75.07;99918.50;3564732;40;20044;-66
2023/01/08 09:01:47;;;;;;;8.60;1.95;;;;;;;8.58;74.52;99915.06;3565542;40;20049;-67
2023/01/08 09:04:13;;;;;;;11.25;2.33;;;;;;;7.84;75.06;99798.69;3569952;40;20076;-66
2023/01/08 09:06:38;;;;;;;6.38;2.00;;;;;;;8.43;75.19;99902.69;3565507;40;20060;-66
2023/01/08 09:09:04;;;;;;;3.80;1.55;;;;;;;8.46;75.25;99909.66;3565312;40;20148;-66
2023/01/08 09:11:31;;;;;;;5.57;1.60;;;;;;;8.41;75.68;99910.00;3566001;40;20072;-67
2023/01/08 09:13:56;;;;;;;10.13;1.98;;;;;;;7.47;75.56;99757.47;3565338;40;20053;-66
2023/01/08 09:16:22;;;;;;;4.50;1.60;;;;;;;8.34;76.25;99898.81;3565741;40;20388;-66
2023/01/08 09:18:50;;;;;;;6.47;1.90;;;;;;;7.96;76.27;99834.47;3565241;40;20076;-66
2023/01/08 09:21:16;;;;;;;4.00;1.30;;;;;;;8.38;76.15;99907.53;3563328;40;20151;-66
2023/01/08 09:23:41;;;;;;;7.75;1.65;;;;;;;8.33;76.61;99891.72;3564167;40;20053;-66
2023/01/08 09:26:08;;;;;;;6.10;1.75;;;;;;;8.37;76.20;99893.25;3563243;40;20057;-66
2023/01/08 09:28:34;;;;;;;7.15;2.08;;;;;;;8.41;76.03;99893.94;3562339;40;20064;-65
2023/01/08 09:31:02;;;;;;;6.47;1.42;;;;;;;8.32;76.77;99878.44;3568992;40;20071;-65
2023/01/08 09:33:28;;;;;;;8.93;2.10;;;;;;;8.45;76.29;99894.56;3566176;40;20054;-64
2023/01/08 09:35:54;;;;;;;8.43;1.50;;;;;;;8.48;76.08;99889.00;3563613;40;20056;-67
2023/01/08 09:38:20;;;;;;;10.32;2.20;;;;;;;7.78;76.56;99768.81;3565814;40;20113;-65
2023/01/08 09:41:02;;;;;;;8.43;1.80;;;;;;;8.05;76.81;99820.44;3567863;40;20073;-65
2023/01/08 09:43:35;;;;;;;11.23;1.73;;;;;;;8.52;76.99;99875.28;3564397;40;20461;-64
2023/01/08 09:46:06;;;;;;;6.20;1.75;;;;;;;8.53;76.87;99881.50;3562867;40;20057;-65
2023/01/08 09:48:40;;;;;;;10.73;2.10;;;;;;;8.51;76.57;99878.94;3564101;40;20473;-64
2023/01/08 09:51:18;;;;;;;12.45;5.22;;;;;;;8.31;77.00;99839.25;3563879;40;20053;-66
2023/01/08 09:53:53;;;;;;;9.82;2.42;;;;;;;8.57;77.11;99870.47;3564406;40;20049;-64
2023/01/08 09:56:19;;;;;;;3.65;1.52;;;;;;;8.63;77.42;99865.66;3566969;40;20094;-64
2023/01/08 09:58:57;;;;;;;5.38;1.90;;;;;;;7.40;77.63;99665.28;3563956;40;20389;-66
2023/01/08 10:01:29;;;;;;;9.30;1.92;;;;;;;8.59;77.68;99849.81;3561906;40;20127;-66
2023/01/08 10:04:14;;;;;;;9.80;2.00;;;;;;;8.71;77.77;99857.94;3566709;40;20057;-66
2023/01/08 10:06:49;;;;;;;7.30;1.70;;;;;;;8.77;77.05;99857.53;3568646;40;20069;-65
2023/01/08 10:09:15;;;;;;;5.95;1.85;;;;;;;8.79;77.49;99860.97;3567952;40;20088;-64
2023/01/08 10:11:47;;;;;;;5.70;1.75;;;;;;;8.88;76.69;99860.31;3568411;40;20128;-65
2023/01/08 10:14:38;;;;;;;9.30;2.28;;;;;;;8.96;76.44;99860.63;3570132;40;20548;-65
2023/01/08 10:17:16;;;;;;;5.32;1.83;;;;;;;9.01;77.07;99850.44;3568919;40;20053;-65
2023/01/08 10:19:44;;;;;;;6.18;1.60;;;;;;;9.10;76.00;99851.59;3560150;40;20073;-63
2023/01/08 10:22:19;;;;;;;7.53;1.60;;;;;;;9.02;76.21;99830.69;3569607;40;20084;-63
2023/01/08 10:24:45;;;;;;;8.68;1.73;;;;;;;9.23;75.12;99843.56;3565118;40;20057;-63
2023/01/08 10:27:20;;;;;;;7.78;2.53;;;;;;;9.30;75.17;99850.19;3570414;40;20100;-62
2023/01/08 10:29:48;;;;;;;4.47;1.70;;;;;;;9.28;75.00;99838.69;3568832;40;20053;-63
2023/01/08 10:32:35;;;;;;;5.90;1.40;;;;;;;9.36;75.55;99828.28;3569731;40;20067;-62
2023/01/08 10:35:06;;;;;;;5.93;1.35;;;;;;;9.50;75.17;99838.84;3571333;40;20092;-62
2023/01/08 10:37:43;;;;;;;3.63;1.00;;;;;;;9.66;74.67;99843.09;3567922;40;20332;-62
2023/01/08 10:40:36;;;;;;;6.13;1.75;;;;;;;9.74;73.46;99829.97;3568373;40;20055;-62
2023/01/08 10:43:17;;;;;;;2.92;1.23;;;;;;;9.89;73.87;99830.63;3568065;40;20395;-62
2023/01/08 10:46:02;;;;;;;5.22;1.27;;;;;;;10.24;72.06;99830.66;3566558;40;20485;-63
2023/01/08 10:48:57;;;;;;;3.50;0.93;;;;;;;10.67;70.53;99816.63;3569071;40;20064;-63
2023/01/08 10:51:26;;;;;;;2.15;0.70;;;;;;;10.99;68.70;99810.53;3557232;40;20064;-62
2023/01/08 10:53:57;;;;;;;3.05;0.90;;;;;;;11.37;67.71;99810.97;3567453;40;20085;-63
2023/01/08 10:56:24;;;;;;;2.58;0.68;;;;;;;11.74;65.17;99813.34;3568369;40;20064;-62
2023/01/08 10:58:51;;;;;;;3.20;1.17;;;;;;;11.95;64.25;99801.78;3568246;40;20055;-63
2023/01/08 11:01:30;;;;;;;1.83;0.70;;;;;;;12.27;63.47;99810.72;3568606;40;20359;-63
2023/01/08 11:04:04;;;;;;;3.10;0.95;;;;;;;12.39;62.46;99797.16;3572460;40;20063;-63
2023/01/08 11:06:38;;;;;;;2.05;0.80;;;;;;;12.60;60.97;99799.84;3567431;40;20063;-63
2023/01/08 11:09:23;;;;;;;1.13;0.68;;;;;;;12.77;60.53;99797.38;3569326;40;20057;-63
2023/01/08 11:11:49;;;;;;;1.85;0.75;;;;;;;12.91;59.94;99787.25;3566855;40;20056;-63
2023/01/08 11:14:27;;;;;;;1.35;0.43;;;;;;;13.10;59.53;99792.72;3570106;40;20052;-62
2023/01/08 11:16:55;;;;;;;1.63;0.80;;;;;;;13.32;58.98;99786.28;3566804;40;20053;-63
2023/01/08 11:19:28;;;;;;;1.63;0.73;;;;;;;13.57;58.27;99790.28;3568021;40;20060;-63
2023/01/08 11:22:20;;;;;;;1.05;0.43;;;;;;;13.60;57.10;99775.66;3568940;40;20103;-63
2023/01/08 11:24:49;;;;;;;1.45;0.40;;;;;;;13.15;57.40;99676.25;3565115;40;20057;-63
2023/01/08 11:27:33;;;;;;;1.30;0.50;;;;;;;13.96;57.56;99770.56;3562461;40;20049;-63
2023/01/08 11:30:15;;;;;;;1.48;0.50;;;;;;;13.83;55.89;99760.91;3568517;40;20067;-65
2023/01/08 11:33:05;;;;;;;0.32;0.30;;;;;;;13.64;56.41;99759.06;3566850;40;20632;-62
2023/01/08 11:35:47;;;;;;;0.85;0.50;;;;;;;13.55;56.72;99756.34;3570300;40;20053;-63
2023/01/08 11:38:13;;;;;;;1.17;0.52;;;;;;;13.74;56.65;99763.59;3569869;40;20368;-64
2023/01/08 11:41:11;;;;;;;1.88;0.77;;;;;;;13.89;55.89;99751.34;3567613;40;20080;-64
2023/01/08 11:44:22;;;;;;;1.13;0.50;;;;;;;13.94;55.21;99752.66;3567898;40;20076;-64
2023/01/08 11:47:17;;;;;;;1.77;0.82;;;;;;;14.08;55.25;99745.97;3566221;40;20065;-64
2023/01/08 11:50:20;;;;;;;2.08;0.88;;;;;;;14.17;55.70;99738.81;3565449;40;20402;-64